<?xml version='1.0' encoding='UTF-8'?><gpx version="1.1" creator="JPX - https://github.com/jenetics/jpx" xmlns="http://www.topografix.com/GPX/1/1"><trk><trkseg><trkpt lat="42.21665019126934" lon="13.835082277629732"><ele>392.7142857142857</ele><time>2026-05-02T13:47:26.999Z</time></trkpt><trkpt lat="42.2166202245697" lon="13.835166375484237"><ele>393.42857142857144</ele><time>2026-05-02T13:47:32.999Z</time></trkpt><trkpt lat="42.216569824865665" lon="13.835234188477498"><ele>394.1428571428571</ele><time>2026-05-02T13:47:38.999Z</time></trkpt><trkpt lat="42.216509092824076" lon="13.835281162359976"><ele>394.8571428571429</ele><time>2026-05-02T13:47:44.999Z</time></trkpt><trkpt lat="42.216440562918066" lon="13.83530682496001"><ele>395.57142857142856</ele><time>2026-05-02T13:47:50.999Z</time></trkpt><trkpt lat="42.21636326995943" lon="13.835305064313582"><ele>396.2857142857143</ele><time>2026-05-02T13:47:56.999Z</time></trkpt><trkpt lat="42.21629492003974" lon="13.835325087446236"><ele>397.0</ele><time>2026-05-02T13:48:01.999Z</time></trkpt><trkpt lat="42.21623130682408" lon="13.835302233759037"><ele>397.0</ele><time>2026-05-02T13:48:06.999Z</time></trkpt><trkpt lat="42.21616293770007" lon="13.835292115624798"><ele>397.0</ele><time>2026-05-02T13:48:11.999Z</time></trkpt><trkpt lat="42.2160952032691" lon="13.835270467886081"><ele>397.0</ele><time>2026-05-02T13:48:19.999Z</time></trkpt><trkpt lat="42.216029274433204" lon="13.8352634737906"><ele>397.0</ele><time>2026-05-02T13:48:24.999Z</time></trkpt><trkpt lat="42.21596325024517" lon="13.835250635918996"><ele>397.0</ele><time>2026-05-02T13:48:29.999Z</time></trkpt><trkpt lat="42.21589032437535" lon="13.835237031300716"><ele>397.0</ele><time>2026-05-02T13:48:35.998Z</time></trkpt><trkpt lat="42.215825482563126" lon="13.835262863188099"><ele>397.0</ele><time>2026-05-02T13:48:41.998Z</time></trkpt><trkpt lat="42.215867240088116" lon="13.835347975886611"><ele>397.0</ele><time>2026-05-02T13:48:48Z</time></trkpt><trkpt lat="42.21591720825099" lon="13.835401906715978"><ele>397.0</ele><time>2026-05-02T13:48:54Z</time></trkpt><trkpt lat="42.215970259359885" lon="13.835474920052672"><ele>397.0</ele><time>2026-05-02T13:49:00Z</time></trkpt><trkpt lat="42.21601278961981" lon="13.835544239290616"><ele>397.0</ele><time>2026-05-02T13:49:06Z</time></trkpt><trkpt lat="42.216034667337176" lon="13.835626653186504"><ele>397.0</ele><time>2026-05-02T13:49:11Z</time></trkpt><trkpt lat="42.21596019546575" lon="13.835658411993698"><ele>397.0</ele><time>2026-05-02T13:49:18Z</time></trkpt><trkpt lat="42.2159002643169" lon="13.835609134672275"><ele>397.0</ele><time>2026-05-02T13:49:23.999Z</time></trkpt><trkpt lat="42.21583913219848" lon="13.83556526256317"><ele>397.0</ele><time>2026-05-02T13:49:29.999Z</time></trkpt><trkpt lat="42.21576796936917" lon="13.835569504377325"><ele>397.0</ele><time>2026-05-02T13:49:34.999Z</time></trkpt><trkpt lat="42.215719986957694" lon="13.835628065268923"><ele>397.0</ele><time>2026-05-02T13:49:39.999Z</time></trkpt><trkpt lat="42.21568202125725" lon="13.835713196091733"><ele>397.0</ele><time>2026-05-02T13:49:46.999Z</time></trkpt><trkpt lat="42.21565746784495" lon="13.835815176248847"><ele>397.0</ele><time>2026-05-02T13:49:53.999Z</time></trkpt><trkpt lat="42.21564506128345" lon="13.835899035363493"><ele>397.0</ele><time>2026-05-02T13:49:59.999Z</time></trkpt><trkpt lat="42.21564205506608" lon="13.83598425813703"><ele>397.0</ele><time>2026-05-02T13:50:04.999Z</time></trkpt><trkpt lat="42.215628067870945" lon="13.836084608336128"><ele>398.0</ele><time>2026-05-02T13:50:11.999Z</time></trkpt><trkpt lat="42.2156173753612" lon="13.83617563789411"><ele>399.0</ele><time>2026-05-02T13:50:17.999Z</time></trkpt><trkpt lat="42.21562310229904" lon="13.836266507359115"><ele>400.0</ele><time>2026-05-02T13:50:22.999Z</time></trkpt><trkpt lat="42.215613083898745" lon="13.836361055788943"><ele>401.0</ele><time>2026-05-02T13:50:28.999Z</time></trkpt><trkpt lat="42.215578014738625" lon="13.83643902484668"><ele>402.0</ele><time>2026-05-02T13:50:35.998Z</time></trkpt><trkpt lat="42.21552389130281" lon="13.836380973047946"><ele>403.0</ele><time>2026-05-02T13:50:41.998Z</time></trkpt><trkpt lat="42.215529325193764" lon="13.836296190021674"><ele>404.0</ele><time>2026-05-02T13:50:46.998Z</time></trkpt><trkpt lat="42.21553287243938" lon="13.836192814356643"><ele>404.0</ele><time>2026-05-02T13:50:53Z</time></trkpt><trkpt lat="42.21553872082031" lon="13.83609713580016"><ele>404.0</ele><time>2026-05-02T13:50:58Z</time></trkpt><trkpt lat="42.215534640180294" lon="13.836003768849702"><ele>404.0</ele><time>2026-05-02T13:51:03Z</time></trkpt><trkpt lat="42.21555355115812" lon="13.835915188750956"><ele>404.0</ele><time>2026-05-02T13:51:08Z</time></trkpt><trkpt lat="42.21555163478192" lon="13.835822582890144"><ele>404.0</ele><time>2026-05-02T13:51:13Z</time></trkpt><trkpt lat="42.215561348245615" lon="13.83573333345683"><ele>404.0</ele><time>2026-05-02T13:51:18Z</time></trkpt><trkpt lat="42.21556016901337" lon="13.835645857984233"><ele>404.0</ele><time>2026-05-02T13:51:23Z</time></trkpt><trkpt lat="42.215556867983686" lon="13.83555520914046"><ele>403.2857142857143</ele><time>2026-05-02T13:51:28Z</time></trkpt><trkpt lat="42.215526829191184" lon="13.83547248978131"><ele>402.57142857142856</ele><time>2026-05-02T13:51:32.999Z</time></trkpt><trkpt lat="42.21546257650504" lon="13.835437335785798"><ele>401.8571428571429</ele><time>2026-05-02T13:51:37.999Z</time></trkpt><trkpt lat="42.21539766647046" lon="13.835459840283688"><ele>401.1428571428571</ele><time>2026-05-02T13:51:42.999Z</time></trkpt><trkpt lat="42.21534786670385" lon="13.835513241977461"><ele>400.42857142857144</ele><time>2026-05-02T13:51:47.999Z</time></trkpt><trkpt lat="42.21531498988053" lon="13.83559170084022"><ele>399.7142857142857</ele><time>2026-05-02T13:52:42.998Z</time></trkpt><trkpt lat="42.21530040547537" lon="13.835692563625749"><ele>399.0</ele><time>2026-05-02T13:52:49.998Z</time></trkpt><trkpt lat="42.215286553402855" lon="13.835775584139988"><ele>399.0</ele><time>2026-05-02T13:52:54.998Z</time></trkpt><trkpt lat="42.215269479424975" lon="13.835865252445165"><ele>399.0</ele><time>2026-05-02T13:53:01Z</time></trkpt><trkpt lat="42.21523340462541" lon="13.835949139413932"><ele>399.0</ele><time>2026-05-02T13:53:08Z</time></trkpt><trkpt lat="42.21518425987833" lon="13.836016278636974"><ele>399.0</ele><time>2026-05-02T13:53:15Z</time></trkpt><trkpt lat="42.215122303257424" lon="13.835977311207193"><ele>399.0</ele><time>2026-05-02T13:53:21Z</time></trkpt><trkpt lat="42.21512020296294" lon="13.835873423494272"><ele>399.0</ele><time>2026-05-02T13:53:27Z</time></trkpt><trkpt lat="42.21514241928543" lon="13.835791038973237"><ele>399.0</ele><time>2026-05-02T13:53:32.999Z</time></trkpt><trkpt lat="42.21516366996751" lon="13.835708376994587"><ele>399.0</ele><time>2026-05-02T13:53:37.999Z</time></trkpt><trkpt lat="42.21518258136923" lon="13.835621916098953"><ele>399.0</ele><time>2026-05-02T13:53:43.999Z</time></trkpt><trkpt lat="42.21518043697361" lon="13.835529775610476"><ele>399.0</ele><time>2026-05-02T13:53:49.999Z</time></trkpt><trkpt lat="42.215174228632534" lon="13.835434410767967"><ele>399.0</ele><time>2026-05-02T13:53:57.999Z</time></trkpt><trkpt lat="42.21516580751692" lon="13.835341070261359"><ele>399.0</ele><time>2026-05-02T13:54:03.999Z</time></trkpt><trkpt lat="42.21515642876094" lon="13.835256233668257"><ele>399.0</ele><time>2026-05-02T13:54:09.999Z</time></trkpt><trkpt lat="42.21517982453753" lon="13.835173520527622"><ele>399.0</ele><time>2026-05-02T13:54:15.999Z</time></trkpt><trkpt lat="42.21524785049376" lon="13.83513215128174"><ele>398.14285714285717</ele><time>2026-05-02T13:54:22.999Z</time></trkpt><trkpt lat="42.215304795067674" lon="13.835081462708791"><ele>397.2857142857143</ele><time>2026-05-02T13:54:28.999Z</time></trkpt><trkpt lat="42.21534282166418" lon="13.835012233239063"><ele>396.42857142857144</ele><time>2026-05-02T13:54:34.998Z</time></trkpt><trkpt lat="42.2153454637848" lon="13.834909362405218"><ele>395.57142857142856</ele><time>2026-05-02T13:54:39.998Z</time></trkpt><trkpt lat="42.21533277995163" lon="13.834808166401036"><ele>394.7142857142857</ele><time>2026-05-02T13:54:45.998Z</time></trkpt><trkpt lat="42.2153014434612" lon="13.834726320538504"><ele>393.8571428571429</ele><time>2026-05-02T13:54:50.998Z</time></trkpt><trkpt lat="42.21525459795923" lon="13.834653795104613"><ele>393.0</ele><time>2026-05-02T13:54:56.998Z</time></trkpt><trkpt lat="42.215191060578476" lon="13.834638597897644"><ele>393.00000000000006</ele><time>2026-05-02T13:55:01.998Z</time></trkpt><trkpt lat="42.21512521429764" lon="13.834645595062035"><ele>393.0</ele><time>2026-05-02T13:55:07Z</time></trkpt><trkpt lat="42.2150654260803" lon="13.834676744726837"><ele>393.0</ele><time>2026-05-02T13:55:12Z</time></trkpt><trkpt lat="42.215005681907286" lon="13.834713641142812"><ele>393.0</ele><time>2026-05-02T13:55:19Z</time></trkpt><trkpt lat="42.214943581640746" lon="13.834753237935974"><ele>393.0</ele><time>2026-05-02T13:55:25Z</time></trkpt><trkpt lat="42.21488301144735" lon="13.83479126898646"><ele>393.00000000000006</ele><time>2026-05-02T13:55:31Z</time></trkpt><trkpt lat="42.214818534505035" lon="13.834803417914962"><ele>393.0</ele><time>2026-05-02T13:55:35.999Z</time></trkpt><trkpt lat="42.2147464253253" lon="13.834776439580986"><ele>392.8571428571429</ele><time>2026-05-02T13:55:41.999Z</time></trkpt><trkpt lat="42.21469491335622" lon="13.834712117371433"><ele>392.7142857142857</ele><time>2026-05-02T13:55:47.999Z</time></trkpt><trkpt lat="42.214652115731084" lon="13.834649430620736"><ele>392.57142857142856</ele><time>2026-05-02T13:55:52.999Z</time></trkpt><trkpt lat="42.214616031162976" lon="13.834570912152412"><ele>392.42857142857144</ele><time>2026-05-02T13:55:58.999Z</time></trkpt><trkpt lat="42.21458427730181" lon="13.834496197058181"><ele>392.2857142857143</ele><time>2026-05-02T13:56:03.999Z</time></trkpt><trkpt lat="42.214539652996095" lon="13.834419292500861"><ele>392.14285714285717</ele><time>2026-05-02T13:56:09.999Z</time></trkpt><trkpt lat="42.21449451611633" lon="13.834340068732468"><ele>392.0</ele><time>2026-05-02T13:56:15.999Z</time></trkpt><trkpt lat="42.21443985124186" lon="13.834296787237502"><ele>392.0</ele><time>2026-05-02T13:56:20.999Z</time></trkpt><trkpt lat="42.21438049900285" lon="13.834327151710989"><ele>392.0</ele><time>2026-05-02T13:56:25.999Z</time></trkpt><trkpt lat="42.2143430679191" lon="13.834401185306941"><ele>392.0</ele><time>2026-05-02T13:56:33.998Z</time></trkpt><trkpt lat="42.214274736773994" lon="13.834362636369802"><ele>392.0</ele><time>2026-05-02T13:57:06.998Z</time></trkpt><trkpt lat="42.21424907181784" lon="13.834282098775173"><ele>392.0</ele><time>2026-05-02T13:57:14Z</time></trkpt><trkpt lat="42.21420636479465" lon="13.83421498000705"><ele>392.0</ele><time>2026-05-02T13:57:20Z</time></trkpt><trkpt lat="42.21418036275666" lon="13.834134127489698"><ele>392.0</ele><time>2026-05-02T13:57:27Z</time></trkpt><trkpt lat="42.214140657637714" lon="13.83405813553387"><ele>392.0</ele><time>2026-05-02T13:57:33.999Z</time></trkpt><trkpt lat="42.21409237252098" lon="13.833996481753045"><ele>392.0</ele><time>2026-05-02T13:57:41.999Z</time></trkpt><trkpt lat="42.21412828886589" lon="13.834078482769103"><ele>392.0</ele><time>2026-05-02T14:00:57.999Z</time></trkpt><trkpt lat="42.214170140787814" lon="13.83414216943311"><ele>392.0</ele><time>2026-05-02T14:01:02.999Z</time></trkpt><trkpt lat="42.21420543985624" lon="13.834214339386872"><ele>392.0</ele><time>2026-05-02T14:01:07.999Z</time></trkpt><trkpt lat="42.2142441215798" lon="13.834294773889896"><ele>392.0</ele><time>2026-05-02T14:01:13.999Z</time></trkpt><trkpt lat="42.21428310033795" lon="13.834368789947364"><ele>392.0</ele><time>2026-05-02T14:01:19.999Z</time></trkpt><trkpt lat="42.214324709967556" lon="13.834433654635205"><ele>392.57142857142856</ele><time>2026-05-02T14:01:25.001Z</time></trkpt><trkpt lat="42.21432750126218" lon="13.834524809596845"><ele>393.1428571428571</ele><time>2026-05-02T14:01:31.001Z</time></trkpt><trkpt lat="42.21433068900619" lon="13.83461761005311"><ele>393.7142857142857</ele><time>2026-05-02T14:01:37Z</time></trkpt><trkpt lat="42.21433343627779" lon="13.834705765561573"><ele>394.2857142857143</ele><time>2026-05-02T14:01:43Z</time></trkpt><trkpt lat="42.21432779946066" lon="13.834799409317142"><ele>394.85714285714283</ele><time>2026-05-02T14:01:49Z</time></trkpt><trkpt lat="42.214323455940296" lon="13.834899311675041"><ele>395.42857142857144</ele><time>2026-05-02T14:01:55Z</time></trkpt><trkpt lat="42.214317556433436" lon="13.8349964910958"><ele>396.0</ele><time>2026-05-02T14:02:01Z</time></trkpt><trkpt lat="42.21432617201282" lon="13.83508847371553"><ele>396.42857142857144</ele><time>2026-05-02T14:02:07Z</time></trkpt><trkpt lat="42.21432733464792" lon="13.835174047234535"><ele>396.85714285714283</ele><time>2026-05-02T14:02:14Z</time></trkpt><trkpt lat="42.214321361136776" lon="13.835262365016574"><ele>397.2857142857143</ele><time>2026-05-02T14:02:20Z</time></trkpt><trkpt lat="42.21432312040351" lon="13.835349632534315"><ele>397.7142857142857</ele><time>2026-05-02T14:02:26Z</time></trkpt><trkpt lat="42.214319987694694" lon="13.835445710883388"><ele>398.1428571428571</ele><time>2026-05-02T14:02:32Z</time></trkpt><trkpt lat="42.21432638596576" lon="13.835542941806194"><ele>398.57142857142856</ele><time>2026-05-02T14:02:37.999Z</time></trkpt><trkpt lat="42.21432859974403" lon="13.835640684643218"><ele>399.0</ele><time>2026-05-02T14:02:43.999Z</time></trkpt><trkpt lat="42.21435455365341" lon="13.835720476846618"><ele>399.0</ele><time>2026-05-02T14:02:49.999Z</time></trkpt><trkpt lat="42.21441810032791" lon="13.835726851201638"><ele>399.0</ele><time>2026-05-02T14:02:54.999Z</time></trkpt><trkpt lat="42.21446927824903" lon="13.835658998969372"><ele>399.0</ele><time>2026-05-02T14:03:00.999Z</time></trkpt><trkpt lat="42.214515208496906" lon="13.835582947647206"><ele>399.0</ele><time>2026-05-02T14:03:06.999Z</time></trkpt><trkpt lat="42.21455637262129" lon="13.835503547932493"><ele>399.0</ele><time>2026-05-02T14:03:12.999Z</time></trkpt><trkpt lat="42.21459361300463" lon="13.835430347486911"><ele>399.0</ele><time>2026-05-02T14:03:17.999Z</time></trkpt><trkpt lat="42.21465026540892" lon="13.835356953977444"><ele>399.0</ele><time>2026-05-02T14:03:23.999Z</time></trkpt><trkpt lat="42.214703933191316" lon="13.835286589950167"><ele>399.0</ele><time>2026-05-02T14:03:29.001Z</time></trkpt><trkpt lat="42.214755499714734" lon="13.835227989144173"><ele>399.0</ele><time>2026-05-02T14:03:34.001Z</time></trkpt><trkpt lat="42.21481589899074" lon="13.835198532119625"><ele>399.0</ele><time>2026-05-02T14:03:39.001Z</time></trkpt><trkpt lat="42.21488214107676" lon="13.835209685146081"><ele>399.0</ele><time>2026-05-02T14:03:44Z</time></trkpt><trkpt lat="42.21493773238896" lon="13.83527597510745"><ele>399.0</ele><time>2026-05-02T14:03:49Z</time></trkpt><trkpt lat="42.214966038574346" lon="13.835358740302675"><ele>399.0</ele><time>2026-05-02T14:03:54Z</time></trkpt><trkpt lat="42.21498955506074" lon="13.83544155701831"><ele>399.0</ele><time>2026-05-02T14:03:59Z</time></trkpt><trkpt lat="42.214989367479305" lon="13.835531565688582"><ele>399.0</ele><time>2026-05-02T14:04:04Z</time></trkpt><trkpt lat="42.2149758040573" lon="13.835621771667691"><ele>399.0</ele><time>2026-05-02T14:04:09Z</time></trkpt><trkpt lat="42.21496408070425" lon="13.83571821440659"><ele>399.0</ele><time>2026-05-02T14:04:15Z</time></trkpt><trkpt lat="42.2149403559049" lon="13.835808690618148"><ele>399.0</ele><time>2026-05-02T14:04:21Z</time></trkpt><trkpt lat="42.21489768519371" lon="13.835887854347222"><ele>399.0</ele><time>2026-05-02T14:04:27Z</time></trkpt><trkpt lat="42.21483768421167" lon="13.835945981011868"><ele>399.0</ele><time>2026-05-02T14:04:33Z</time></trkpt><trkpt lat="42.21477924304651" lon="13.835979262094188"><ele>399.0</ele><time>2026-05-02T14:04:38Z</time></trkpt><trkpt lat="42.2147077963021" lon="13.835994689319255"><ele>399.7142857142857</ele><time>2026-05-02T14:04:43.999Z</time></trkpt><trkpt lat="42.21464287371652" lon="13.83601569823946"><ele>400.42857142857144</ele><time>2026-05-02T14:04:48.999Z</time></trkpt><trkpt lat="42.21458019290701" lon="13.83602406082647"><ele>401.1428571428571</ele><time>2026-05-02T14:04:53.999Z</time></trkpt><trkpt lat="42.21451599937873" lon="13.836026178311693"><ele>401.8571428571429</ele><time>2026-05-02T14:04:58.999Z</time></trkpt><trkpt lat="42.21444713099143" lon="13.836011632806384"><ele>402.57142857142856</ele><time>2026-05-02T14:05:04.999Z</time></trkpt><trkpt lat="42.21437290468023" lon="13.83600835523784"><ele>403.2857142857143</ele><time>2026-05-02T14:05:10.999Z</time></trkpt><trkpt lat="42.214304952079395" lon="13.836015363617348"><ele>404.0</ele><time>2026-05-02T14:05:16.999Z</time></trkpt><trkpt lat="42.21423365644235" lon="13.83604702094949"><ele>404.0</ele><time>2026-05-02T14:05:22.999Z</time></trkpt><trkpt lat="42.21419600214253" lon="13.83613227165926"><ele>404.0</ele><time>2026-05-02T14:05:29.999Z</time></trkpt><trkpt lat="42.21421633692404" lon="13.836224473208102"><ele>404.0</ele><time>2026-05-02T14:05:35.001Z</time></trkpt><trkpt lat="42.214239718684254" lon="13.836319992452667"><ele>404.0</ele><time>2026-05-02T14:05:41.001Z</time></trkpt><trkpt lat="42.21427009735203" lon="13.836395554497642"><ele>404.0</ele><time>2026-05-02T14:05:46.001Z</time></trkpt><trkpt lat="42.21429858063202" lon="13.836478467641976"><ele>404.0</ele><time>2026-05-02T14:05:52Z</time></trkpt><trkpt lat="42.214326208479896" lon="13.836572950553254"><ele>404.0</ele><time>2026-05-02T14:05:59Z</time></trkpt><trkpt lat="42.21435326354027" lon="13.836655507989883"><ele>404.0</ele><time>2026-05-02T14:06:05Z</time></trkpt><trkpt lat="42.214375799134146" lon="13.836738662485681"><ele>404.0</ele><time>2026-05-02T14:06:10Z</time></trkpt><trkpt lat="42.21440298048668" lon="13.83681676350974"><ele>404.0</ele><time>2026-05-02T14:06:15Z</time></trkpt><trkpt lat="42.21442121067508" lon="13.836903058716436"><ele>404.0</ele><time>2026-05-02T14:06:20Z</time></trkpt><trkpt lat="42.214456091540846" lon="13.836986601352887"><ele>404.0</ele><time>2026-05-02T14:06:26Z</time></trkpt><trkpt lat="42.21450212230606" lon="13.837060258179681"><ele>404.0</ele><time>2026-05-02T14:06:31Z</time></trkpt><trkpt lat="42.21456383243088" lon="13.837122103670307"><ele>404.0</ele><time>2026-05-02T14:06:37Z</time></trkpt><trkpt lat="42.214637996144475" lon="13.837155302065161"><ele>404.42857142857144</ele><time>2026-05-02T14:06:43Z</time></trkpt><trkpt lat="42.21471347583308" lon="13.837173865606642"><ele>404.85714285714283</ele><time>2026-05-02T14:06:48.999Z</time></trkpt><trkpt lat="42.21478145589706" lon="13.837174789130872"><ele>405.28571428571433</ele><time>2026-05-02T14:06:53.999Z</time></trkpt><trkpt lat="42.21484536990793" lon="13.837204354179262"><ele>405.7142857142857</ele><time>2026-05-02T14:07:00.999Z</time></trkpt><trkpt lat="42.214889251618814" lon="13.837277022185345"><ele>406.14285714285717</ele><time>2026-05-02T14:07:06.999Z</time></trkpt><trkpt lat="42.21489180250086" lon="13.83736677451733"><ele>406.5714285714286</ele><time>2026-05-02T14:07:12.999Z</time></trkpt><trkpt lat="42.21489090822905" lon="13.837460025174"><ele>407.0</ele><time>2026-05-02T14:07:19.999Z</time></trkpt><trkpt lat="42.21490747468121" lon="13.837554914004777"><ele>408.28571428571433</ele><time>2026-05-02T14:07:25.999Z</time></trkpt><trkpt lat="42.214922960035466" lon="13.837646005479993"><ele>409.57142857142856</ele><time>2026-05-02T14:07:32.999Z</time></trkpt><trkpt lat="42.21495206533872" lon="13.83772439284256"><ele>410.8571428571429</ele><time>2026-05-02T14:07:39.001Z</time></trkpt><trkpt lat="42.21497965589048" lon="13.837803135423714"><ele>412.14285714285717</ele><time>2026-05-02T14:07:44.001Z</time></trkpt><trkpt lat="42.21500527282906" lon="13.837884482610088"><ele>413.42857142857144</ele><time>2026-05-02T14:07:52.001Z</time></trkpt><trkpt lat="42.215020740076724" lon="13.837976369989867"><ele>414.7142857142857</ele><time>2026-05-02T14:08:23Z</time></trkpt><trkpt lat="42.215037747335565" lon="13.838063523881148"><ele>416.0</ele><time>2026-05-02T14:08:29Z</time></trkpt><trkpt lat="42.21504873932813" lon="13.838164096559982"><ele>416.0</ele><time>2026-05-02T14:08:36Z</time></trkpt><trkpt lat="42.215065330990036" lon="13.838262245972464"><ele>416.0</ele><time>2026-05-02T14:08:43Z</time></trkpt><trkpt lat="42.21508497498586" lon="13.838349572505274"><ele>416.0</ele><time>2026-05-02T14:08:49Z</time></trkpt><trkpt lat="42.215106881119546" lon="13.838439188424898"><ele>416.0</ele><time>2026-05-02T14:08:54.999Z</time></trkpt><trkpt lat="42.2151256792865" lon="13.838542442372562"><ele>416.0</ele><time>2026-05-02T14:09:01.999Z</time></trkpt><trkpt lat="42.215143423229634" lon="13.838635648144681"><ele>416.0</ele><time>2026-05-02T14:09:07.999Z</time></trkpt><trkpt lat="42.2151623371617" lon="13.838717047661287"><ele>416.0</ele><time>2026-05-02T14:09:14.999Z</time></trkpt><trkpt lat="42.21519845859347" lon="13.838787749787981"><ele>417.57142857142856</ele><time>2026-05-02T14:09:23.999Z</time></trkpt><trkpt lat="42.21525388823656" lon="13.838842961570995"><ele>419.14285714285717</ele><time>2026-05-02T14:09:30.999Z</time></trkpt><trkpt lat="42.21530633928694" lon="13.83889554615445"><ele>420.7142857142857</ele><time>2026-05-02T14:09:37.999Z</time></trkpt><trkpt lat="42.21535199762786" lon="13.838955436500024"><ele>422.2857142857143</ele><time>2026-05-02T14:09:45.001Z</time></trkpt><trkpt lat="42.21539201699565" lon="13.839025402413947"><ele>423.8571428571429</ele><time>2026-05-02T14:09:53.001Z</time></trkpt><trkpt lat="42.21539778898014" lon="13.839112489210246"><ele>425.42857142857144</ele><time>2026-05-02T14:10:02Z</time></trkpt><trkpt lat="42.21537550937195" lon="13.83920613942792"><ele>427.0</ele><time>2026-05-02T14:10:15Z</time></trkpt><trkpt lat="42.21531529227861" lon="13.839266503557914"><ele>427.0</ele><time>2026-05-02T14:10:22Z</time></trkpt><trkpt lat="42.21525819388426" lon="13.839312357607886"><ele>427.0</ele><time>2026-05-02T14:10:29Z</time></trkpt><trkpt lat="42.215195209526364" lon="13.83933520245098"><ele>427.0</ele><time>2026-05-02T14:10:36Z</time></trkpt><trkpt lat="42.21513215678478" lon="13.839299116035942"><ele>427.0</ele><time>2026-05-02T14:10:42Z</time></trkpt><trkpt lat="42.2150660371608" lon="13.839260869244859"><ele>427.0</ele><time>2026-05-02T14:10:47Z</time></trkpt><trkpt lat="42.21500416178108" lon="13.839237926505287"><ele>427.0</ele><time>2026-05-02T14:10:52Z</time></trkpt><trkpt lat="42.21494666230118" lon="13.839191947943966"><ele>427.0</ele><time>2026-05-02T14:10:57.999Z</time></trkpt><trkpt lat="42.21491414558511" lon="13.839103532637113"><ele>427.0</ele><time>2026-05-02T14:11:09.999Z</time></trkpt><trkpt lat="42.21490465985915" lon="13.839011997223684"><ele>427.0</ele><time>2026-05-02T14:11:14.999Z</time></trkpt><trkpt lat="42.214885018420674" lon="13.838915940711383"><ele>427.0</ele><time>2026-05-02T14:11:19.999Z</time></trkpt><trkpt lat="42.214858655523976" lon="13.8388205251367"><ele>427.0</ele><time>2026-05-02T14:11:24.999Z</time></trkpt><trkpt lat="42.214841619617204" lon="13.838721736186999"><ele>427.0</ele><time>2026-05-02T14:11:29.999Z</time></trkpt><trkpt lat="42.21484466851961" lon="13.838625031934864"><ele>427.0</ele><time>2026-05-02T14:11:34.999Z</time></trkpt><trkpt lat="42.214885044929694" lon="13.838559817717968"><ele>427.0</ele><time>2026-05-02T14:11:40.999Z</time></trkpt><trkpt lat="42.21494322693427" lon="13.838508959317306"><ele>425.42857142857144</ele><time>2026-05-02T14:11:46.999Z</time></trkpt><trkpt lat="42.21499104036217" lon="13.838432281342127"><ele>423.8571428571429</ele><time>2026-05-02T14:11:53Z</time></trkpt><trkpt lat="42.21499375434705" lon="13.838334034541097"><ele>422.2857142857143</ele><time>2026-05-02T14:11:58.001Z</time></trkpt><trkpt lat="42.21494539022749" lon="13.838271901241571"><ele>420.7142857142857</ele><time>2026-05-02T14:12:03Z</time></trkpt><trkpt lat="42.21487908431494" lon="13.83825771050702"><ele>419.14285714285717</ele><time>2026-05-02T14:12:08Z</time></trkpt><trkpt lat="42.21480710214764" lon="13.838265668531262"><ele>417.57142857142856</ele><time>2026-05-02T14:12:14Z</time></trkpt><trkpt lat="42.214745182123416" lon="13.838230813905557"><ele>416.0</ele><time>2026-05-02T14:12:19Z</time></trkpt><trkpt lat="42.214703388909854" lon="13.838152835932725"><ele>415.1428571428571</ele><time>2026-05-02T14:12:25Z</time></trkpt><trkpt lat="42.2146842708134" lon="13.838067198877226"><ele>414.28571428571433</ele><time>2026-05-02T14:12:30Z</time></trkpt><trkpt lat="42.214661832433016" lon="13.83798575127745"><ele>413.42857142857144</ele><time>2026-05-02T14:12:35Z</time></trkpt><trkpt lat="42.21464229467352" lon="13.837903237077901"><ele>412.57142857142856</ele><time>2026-05-02T14:12:40Z</time></trkpt><trkpt lat="42.21461733517923" lon="13.837818937417724"><ele>411.71428571428567</ele><time>2026-05-02T14:12:45Z</time></trkpt><trkpt lat="42.21457774932443" lon="13.83774658322669"><ele>410.8571428571429</ele><time>2026-05-02T14:12:50Z</time></trkpt><trkpt lat="42.21451521559366" lon="13.837728902179238"><ele>410.0</ele><time>2026-05-02T14:12:55Z</time></trkpt><trkpt lat="42.21446033108727" lon="13.83777086317188"><ele>410.0</ele><time>2026-05-02T14:12:59.999Z</time></trkpt><trkpt lat="42.21446936625228" lon="13.837865046724977"><ele>410.0</ele><time>2026-05-02T14:13:04.999Z</time></trkpt><trkpt lat="42.21447695094004" lon="13.837951942655316"><ele>410.0</ele><time>2026-05-02T14:13:11.999Z</time></trkpt><trkpt lat="42.21449720322876" lon="13.838046019342968"><ele>410.0</ele><time>2026-05-02T14:13:18.999Z</time></trkpt><trkpt lat="42.2145067812469" lon="13.838135591854806"><ele>410.0</ele><time>2026-05-02T14:13:24.999Z</time></trkpt><trkpt lat="42.214522724630605" lon="13.838230537188315"><ele>410.0</ele><time>2026-05-02T14:13:33.999Z</time></trkpt><trkpt lat="42.21452959957253" lon="13.838327434690752"><ele>410.0</ele><time>2026-05-02T14:13:44.999Z</time></trkpt><trkpt lat="42.214540442393044" lon="13.838423168143175"><ele>410.0</ele><time>2026-05-02T14:13:51.999Z</time></trkpt><trkpt lat="42.214554091234454" lon="13.8385205035999"><ele>410.0</ele><time>2026-05-02T14:13:58Z</time></trkpt><trkpt lat="42.21456125448034" lon="13.838610505033202"><ele>410.0</ele><time>2026-05-02T14:14:02Z</time></trkpt><trkpt lat="42.214541860132854" lon="13.8386938208482"><ele>410.0</ele><time>2026-05-02T14:14:07Z</time></trkpt><trkpt lat="42.21448623564493" lon="13.838638628742071"><ele>410.0</ele><time>2026-05-02T14:14:13Z</time></trkpt><trkpt lat="42.21447060955161" lon="13.838551187036783"><ele>410.0</ele><time>2026-05-02T14:14:18Z</time></trkpt><trkpt lat="42.21444560212374" lon="13.838461642706545"><ele>410.0</ele><time>2026-05-02T14:14:24Z</time></trkpt><trkpt lat="42.21442732732184" lon="13.83837964361219"><ele>410.0</ele><time>2026-05-02T14:14:29Z</time></trkpt><trkpt lat="42.21439607654389" lon="13.838304105459965"><ele>410.0</ele><time>2026-05-02T14:14:34Z</time></trkpt><trkpt lat="42.214367405053395" lon="13.838227121518637"><ele>410.0</ele><time>2026-05-02T14:14:39Z</time></trkpt><trkpt lat="42.214338499303516" lon="13.838150009295074"><ele>410.0</ele><time>2026-05-02T14:14:44Z</time></trkpt><trkpt lat="42.2143013022248" lon="13.838069371623963"><ele>410.0</ele><time>2026-05-02T14:14:49Z</time></trkpt><trkpt lat="42.21426593286853" lon="13.837998416049528"><ele>410.0</ele><time>2026-05-02T14:14:54Z</time></trkpt><trkpt lat="42.21422697870094" lon="13.837928063353072"><ele>410.0</ele><time>2026-05-02T14:14:59Z</time></trkpt><trkpt lat="42.214188076969556" lon="13.837854130434208"><ele>410.0</ele><time>2026-05-02T14:15:03.999Z</time></trkpt><trkpt lat="42.214152827001364" lon="13.837780284181992"><ele>410.0</ele><time>2026-05-02T14:15:08.999Z</time></trkpt><trkpt lat="42.2141104733075" lon="13.837697237086108"><ele>410.0</ele><time>2026-05-02T14:15:14.999Z</time></trkpt><trkpt lat="42.21406688341076" lon="13.837624102019472"><ele>410.0</ele><time>2026-05-02T14:15:19.999Z</time></trkpt><trkpt lat="42.21401770332287" lon="13.837545253046224"><ele>410.0</ele><time>2026-05-02T14:15:25.999Z</time></trkpt><trkpt lat="42.21398568939624" lon="13.837470438495224"><ele>410.0</ele><time>2026-05-02T14:15:30.999Z</time></trkpt><trkpt lat="42.21395287394317" lon="13.837391637084282"><ele>410.0</ele><time>2026-05-02T14:15:35.999Z</time></trkpt><trkpt lat="42.213923086170404" lon="13.837313022530996"><ele>409.5714285714286</ele><time>2026-05-02T14:15:40.999Z</time></trkpt><trkpt lat="42.213918579739286" lon="13.83721718851226"><ele>409.1428571428571</ele><time>2026-05-02T14:15:46.999Z</time></trkpt><trkpt lat="42.21398939648404" lon="13.837218810600138"><ele>408.7142857142857</ele><time>2026-05-02T14:15:54.999Z</time></trkpt><trkpt lat="42.21405256302517" lon="13.837247972074705"><ele>408.28571428571433</ele><time>2026-05-02T14:15:59.998Z</time></trkpt><trkpt lat="42.21411168500056" lon="13.83728701356576"><ele>407.8571428571429</ele><time>2026-05-02T14:16:06Z</time></trkpt><trkpt lat="42.214170356660034" lon="13.837244550735761"><ele>407.42857142857144</ele><time>2026-05-02T14:16:11Z</time></trkpt><trkpt lat="42.21414770674501" lon="13.837156395927671"><ele>407.0</ele><time>2026-05-02T14:16:17Z</time></trkpt><trkpt lat="42.21414243165468" lon="13.837063525077452"><ele>407.00000000000006</ele><time>2026-05-02T14:16:23Z</time></trkpt><trkpt lat="42.21414129017906" lon="13.836965062551945"><ele>407.0</ele><time>2026-05-02T14:16:30Z</time></trkpt><trkpt lat="42.2141803197363" lon="13.836889427578162"><ele>407.0</ele><time>2026-05-02T14:16:39Z</time></trkpt><trkpt lat="42.214236032243214" lon="13.836832954352964"><ele>407.0</ele><time>2026-05-02T14:16:46Z</time></trkpt><trkpt lat="42.21426204335686" lon="13.836751452695948"><ele>407.0</ele><time>2026-05-02T14:16:51Z</time></trkpt><trkpt lat="42.21424842471721" lon="13.836657044497372"><ele>407.00000000000006</ele><time>2026-05-02T14:16:56Z</time></trkpt><trkpt lat="42.21420583186682" lon="13.836581146907665"><ele>407.0</ele><time>2026-05-02T14:17:01Z</time></trkpt><trkpt lat="42.21413845965012" lon="13.8365500045664"><ele>406.5714285714286</ele><time>2026-05-02T14:17:05.999Z</time></trkpt><trkpt lat="42.21407068556993" lon="13.836532971848948"><ele>406.14285714285717</ele><time>2026-05-02T14:17:10.999Z</time></trkpt><trkpt lat="42.21400688768063" lon="13.836505716964053"><ele>405.7142857142857</ele><time>2026-05-02T14:17:15.999Z</time></trkpt><trkpt lat="42.2139640394966" lon="13.83644320926601"><ele>405.28571428571433</ele><time>2026-05-02T14:17:20.999Z</time></trkpt><trkpt lat="42.21397480343544" lon="13.836348027351923"><ele>404.85714285714283</ele><time>2026-05-02T14:17:26.999Z</time></trkpt><trkpt lat="42.214016359038354" lon="13.836268793724193"><ele>404.42857142857144</ele><time>2026-05-02T14:17:32.999Z</time></trkpt><trkpt lat="42.214055110840626" lon="13.836186143908646"><ele>404.0</ele><time>2026-05-02T14:17:38.999Z</time></trkpt><trkpt lat="42.2140942880331" lon="13.836099192289296"><ele>404.0</ele><time>2026-05-02T14:17:44.999Z</time></trkpt><trkpt lat="42.214127882952205" lon="13.836026922761715"><ele>404.0</ele><time>2026-05-02T14:17:49.999Z</time></trkpt><trkpt lat="42.214149582924804" lon="13.835930003763702"><ele>404.0</ele><time>2026-05-02T14:17:55.999Z</time></trkpt><trkpt lat="42.214157773728445" lon="13.835841517812256"><ele>404.0</ele><time>2026-05-02T14:18:00.998Z</time></trkpt><trkpt lat="42.214161799788556" lon="13.835756089098371"><ele>404.0</ele><time>2026-05-02T14:18:05.998Z</time></trkpt><trkpt lat="42.21415439534994" lon="13.835665355116967"><ele>404.0</ele><time>2026-05-02T14:18:11Z</time></trkpt><trkpt lat="42.21413723106203" lon="13.835575974736082"><ele>404.0</ele><time>2026-05-02T14:18:16Z</time></trkpt><trkpt lat="42.214126194186136" lon="13.835488843914566"><ele>403.2857142857143</ele><time>2026-05-02T14:18:21Z</time></trkpt><trkpt lat="42.214120386982955" lon="13.83538773352884"><ele>402.57142857142856</ele><time>2026-05-02T14:18:27Z</time></trkpt><trkpt lat="42.21410755741234" lon="13.835289219856968"><ele>401.8571428571429</ele><time>2026-05-02T14:18:33Z</time></trkpt><trkpt lat="42.21410081021574" lon="13.83520055160889"><ele>401.1428571428571</ele><time>2026-05-02T14:18:38Z</time></trkpt><trkpt lat="42.21409197135718" lon="13.835115236620405"><ele>400.42857142857144</ele><time>2026-05-02T14:18:43Z</time></trkpt><trkpt lat="42.21410012532602" lon="13.83502769825886"><ele>399.7142857142857</ele><time>2026-05-02T14:18:48Z</time></trkpt><trkpt lat="42.214098130319506" lon="13.834934693453011"><ele>399.0</ele><time>2026-05-02T14:18:53Z</time></trkpt><trkpt lat="42.214113931864134" lon="13.834850252299482"><ele>398.57142857142856</ele><time>2026-05-02T14:18:58Z</time></trkpt><trkpt lat="42.21414345430673" lon="13.83476524971759"><ele>398.1428571428571</ele><time>2026-05-02T14:19:04Z</time></trkpt><trkpt lat="42.21417726398781" lon="13.83467857521954"><ele>397.7142857142857</ele><time>2026-05-02T14:19:09.999Z</time></trkpt><trkpt lat="42.21419578960537" lon="13.83459274075975"><ele>397.2857142857143</ele><time>2026-05-02T14:19:14.999Z</time></trkpt><trkpt lat="42.21421838447413" lon="13.83451152262909"><ele>396.85714285714283</ele><time>2026-05-02T14:19:19.999Z</time></trkpt><trkpt lat="42.214235428063674" lon="13.834424931848682"><ele>396.42857142857144</ele><time>2026-05-02T14:19:24.999Z</time></trkpt><trkpt lat="42.21423911437551" lon="13.834320807015171"><ele>396.0</ele><time>2026-05-02T14:19:30.999Z</time></trkpt><trkpt lat="42.214237232512176" lon="13.834230153494135"><ele>395.42857142857144</ele><time>2026-05-02T14:19:35.999Z</time></trkpt><trkpt lat="42.21419844887959" lon="13.834150166519343"><ele>394.85714285714283</ele><time>2026-05-02T14:19:40.999Z</time></trkpt><trkpt lat="42.21415672968403" lon="13.834073109583969"><ele>394.2857142857143</ele><time>2026-05-02T14:19:45.999Z</time></trkpt><trkpt lat="42.21410857617739" lon="13.833998557752198"><ele>393.7142857142857</ele><time>2026-05-02T14:19:51.999Z</time></trkpt><trkpt lat="42.21406417423061" lon="13.833933436568842"><ele>393.1428571428571</ele><time>2026-05-02T14:19:56.999Z</time></trkpt><trkpt lat="42.21401215426314" lon="13.833862910266319"><ele>392.57142857142856</ele><time>2026-05-02T14:20:02.999Z</time></trkpt><trkpt lat="42.21396581936523" lon="13.833788974488666"><ele>392.0</ele><time>2026-05-02T14:20:08.998Z</time></trkpt><trkpt lat="42.21392388785589" lon="13.833705118445103"><ele>392.0</ele><time>2026-05-02T14:20:15Z</time></trkpt><trkpt lat="42.21392774191719" lon="13.833611967547158"><ele>392.0</ele><time>2026-05-02T14:20:21Z</time></trkpt><trkpt lat="42.21399048384383" lon="13.833580158245736"><ele>392.0</ele><time>2026-05-02T14:20:26Z</time></trkpt><trkpt lat="42.21405819433221" lon="13.833565482864035"><ele>392.0</ele><time>2026-05-02T14:20:32Z</time></trkpt><trkpt lat="42.21411215467634" lon="13.83361768252059"><ele>392.0</ele><time>2026-05-02T14:20:37Z</time></trkpt><trkpt lat="42.214158636365816" lon="13.833679344344446"><ele>392.0</ele><time>2026-05-02T14:20:42Z</time></trkpt><trkpt lat="42.214207946520496" lon="13.833742133539449"><ele>392.0</ele><time>2026-05-02T14:20:47Z</time></trkpt><trkpt lat="42.21425726263078" lon="13.833817241819002"><ele>392.0</ele><time>2026-05-02T14:20:53Z</time></trkpt><trkpt lat="42.21431564149412" lon="13.83387935281987"><ele>392.0</ele><time>2026-05-02T14:20:59Z</time></trkpt><trkpt lat="42.21436993116862" lon="13.833923974473478"><ele>392.0</ele><time>2026-05-02T14:21:04Z</time></trkpt><trkpt lat="42.21442717349749" lon="13.833972287212308"><ele>392.0</ele><time>2026-05-02T14:21:16.999Z</time></trkpt><trkpt lat="42.214481201669344" lon="13.834027457873626"><ele>392.0</ele><time>2026-05-02T14:21:22.999Z</time></trkpt><trkpt lat="42.21453334808106" lon="13.834078220428536"><ele>392.0</ele><time>2026-05-02T14:21:28.999Z</time></trkpt><trkpt lat="42.214593502522355" lon="13.834134997394953"><ele>392.0</ele><time>2026-05-02T14:21:34.999Z</time></trkpt><trkpt lat="42.21465096827086" lon="13.834179995250844"><ele>391.99999999999994</ele><time>2026-05-02T14:21:40.999Z</time></trkpt><trkpt lat="42.2147631087104" lon="13.834168773266041"><ele>392.0</ele><time>2026-05-02T14:21:50.999Z</time></trkpt><trkpt lat="42.214783567940074" lon="13.834074180114323"><ele>392.0</ele><time>2026-05-02T14:21:55.999Z</time></trkpt><trkpt lat="42.214804113255134" lon="13.83398855733693"><ele>392.0</ele><time>2026-05-02T14:22:00.999Z</time></trkpt><trkpt lat="42.21483761058221" lon="13.833908275335663"><ele>391.99999999999994</ele><time>2026-05-02T14:22:06.999Z</time></trkpt><trkpt lat="42.21490184868006" lon="13.833889275377256"><ele>392.0</ele><time>2026-05-02T14:22:11.998Z</time></trkpt><trkpt lat="42.21497063556585" lon="13.833849247989853"><ele>391.57142857142856</ele><time>2026-05-02T14:22:17.998Z</time></trkpt><trkpt lat="42.215023724169306" lon="13.833799797191968"><ele>391.1428571428571</ele><time>2026-05-02T14:22:23Z</time></trkpt><trkpt lat="42.21504524801956" lon="13.833705171893756"><ele>390.7142857142857</ele><time>2026-05-02T14:22:28Z</time></trkpt><trkpt lat="42.21505506356809" lon="13.83360921293474"><ele>390.2857142857143</ele><time>2026-05-02T14:22:33Z</time></trkpt><trkpt lat="42.21504782775517" lon="13.833515844691924"><ele>389.85714285714283</ele><time>2026-05-02T14:22:38Z</time></trkpt><trkpt lat="42.21504742418667" lon="13.833426694833554"><ele>389.42857142857144</ele><time>2026-05-02T14:22:43Z</time></trkpt><trkpt lat="42.21505365852207" lon="13.83333835641223"><ele>389.0</ele><time>2026-05-02T14:22:48Z</time></trkpt><trkpt lat="42.2150647001251" lon="13.833240377536146"><ele>388.5714285714286</ele><time>2026-05-02T14:22:54Z</time></trkpt><trkpt lat="42.21509492371325" lon="13.833154358555399"><ele>388.1428571428571</ele><time>2026-05-02T14:23:00Z</time></trkpt><trkpt lat="42.215154802065065" lon="13.833109416063413"><ele>387.7142857142857</ele><time>2026-05-02T14:23:06Z</time></trkpt><trkpt lat="42.2152198625236" lon="13.833065569575389"><ele>387.28571428571433</ele><time>2026-05-02T14:23:12Z</time></trkpt><trkpt lat="42.215278036505055" lon="13.833029436184631"><ele>386.8571428571429</ele><time>2026-05-02T14:23:17Z</time></trkpt><trkpt lat="42.2153340808575" lon="13.83297214757845"><ele>386.42857142857144</ele><time>2026-05-02T14:23:22.999Z</time></trkpt><trkpt lat="42.21538412459273" lon="13.832894644757763"><ele>386.0</ele><time>2026-05-02T14:23:28.999Z</time></trkpt><trkpt lat="42.21543933245885" lon="13.832839062525068"><ele>386.00000000000006</ele><time>2026-05-02T14:23:33.999Z</time></trkpt><trkpt lat="42.21549694784134" lon="13.832774297335577"><ele>386.0</ele><time>2026-05-02T14:23:39.999Z</time></trkpt><trkpt lat="42.21555962329331" lon="13.83280418984361"><ele>386.0</ele><time>2026-05-02T14:23:45.999Z</time></trkpt><trkpt lat="42.21556944871258" lon="13.832890856353853"><ele>386.0</ele><time>2026-05-02T14:23:50.999Z</time></trkpt><trkpt lat="42.21556024329453" lon="13.832987691787574"><ele>386.0</ele><time>2026-05-02T14:23:56.999Z</time></trkpt><trkpt lat="42.21555933563869" lon="13.833082444383022"><ele>386.00000000000006</ele><time>2026-05-02T14:24:03.999Z</time></trkpt><trkpt lat="42.215557182233134" lon="13.833177447639441"><ele>386.0</ele><time>2026-05-02T14:24:09.999Z</time></trkpt><trkpt lat="42.215595370678905" lon="13.83325711062241"><ele>385.8571428571429</ele><time>2026-05-02T14:24:15.998Z</time></trkpt><trkpt lat="42.21565839219333" lon="13.83321828925371"><ele>385.7142857142857</ele><time>2026-05-02T14:24:21.998Z</time></trkpt><trkpt lat="42.215716392553006" lon="13.833168946033403"><ele>385.57142857142856</ele><time>2026-05-02T14:24:28Z</time></trkpt><trkpt lat="42.21576038707146" lon="13.833237078448581"><ele>385.42857142857144</ele><time>2026-05-02T14:24:37Z</time></trkpt><trkpt lat="42.2157392585817" lon="13.833329952843954"><ele>385.2857142857143</ele><time>2026-05-02T14:24:43Z</time></trkpt><trkpt lat="42.21570679704847" lon="13.833403467252777"><ele>385.14285714285717</ele><time>2026-05-02T14:24:48Z</time></trkpt><trkpt lat="42.21566628638259" lon="13.833469550717481"><ele>385.0</ele><time>2026-05-02T14:24:53Z</time></trkpt><trkpt lat="42.21562751123601" lon="13.83354907376936"><ele>385.57142857142856</ele><time>2026-05-02T14:24:59Z</time></trkpt><trkpt lat="42.21557359849065" lon="13.83361847385493"><ele>386.1428571428571</ele><time>2026-05-02T14:25:05Z</time></trkpt><trkpt lat="42.21550870301899" lon="13.833654375516511"><ele>386.7142857142857</ele><time>2026-05-02T14:25:11Z</time></trkpt><trkpt lat="42.21543413402621" lon="13.833654280796916"><ele>387.2857142857143</ele><time>2026-05-02T14:25:17Z</time></trkpt><trkpt lat="42.21536788992017" lon="13.83364582539167"><ele>387.85714285714283</ele><time>2026-05-02T14:25:21.999Z</time></trkpt><trkpt lat="42.21529666879862" lon="13.833675064175743"><ele>388.42857142857144</ele><time>2026-05-02T14:25:27.999Z</time></trkpt><trkpt lat="42.215248796537985" lon="13.833736650706202"><ele>389.0</ele><time>2026-05-02T14:25:33.999Z</time></trkpt><trkpt lat="42.21521926232688" lon="13.83381584037583"><ele>389.0</ele><time>2026-05-02T14:25:38.999Z</time></trkpt><trkpt lat="42.21519713884169" lon="13.83389637294209"><ele>389.0</ele><time>2026-05-02T14:25:43.999Z</time></trkpt><trkpt lat="42.215207567746404" lon="13.83398829388191"><ele>389.0</ele><time>2026-05-02T14:25:49.999Z</time></trkpt><trkpt lat="42.21522546465717" lon="13.834072826068619"><ele>389.0</ele><time>2026-05-02T14:25:54.999Z</time></trkpt><trkpt lat="42.215267213755446" lon="13.834150726686328"><ele>389.0</ele><time>2026-05-02T14:26:00.999Z</time></trkpt><trkpt lat="42.21532985778221" lon="13.834160612306107"><ele>389.0</ele><time>2026-05-02T14:26:05.999Z</time></trkpt><trkpt lat="42.21539565710265" lon="13.834112166697503"><ele>389.0</ele><time>2026-05-02T14:26:11.999Z</time></trkpt><trkpt lat="42.21544020136959" lon="13.83404815504881"><ele>389.0</ele><time>2026-05-02T14:26:16.999Z</time></trkpt><trkpt lat="42.215493337657044" lon="13.833975877178858"><ele>389.0</ele><time>2026-05-02T14:26:21.998Z</time></trkpt><trkpt lat="42.21554603035688" lon="13.83392157180366"><ele>389.0</ele><time>2026-05-02T14:26:26.998Z</time></trkpt><trkpt lat="42.21560688932578" lon="13.833870468379892"><ele>389.0</ele><time>2026-05-02T14:26:33Z</time></trkpt><trkpt lat="42.21566927780288" lon="13.833905267022493"><ele>389.0</ele><time>2026-05-02T14:26:38Z</time></trkpt><trkpt lat="42.21569803348579" lon="13.834000945802034"><ele>389.0</ele><time>2026-05-02T14:26:44Z</time></trkpt><trkpt lat="42.21569183909483" lon="13.834100010577698"><ele>389.0</ele><time>2026-05-02T14:26:50Z</time></trkpt><trkpt lat="42.21566502050387" lon="13.834177415663357"><ele>389.0</ele><time>2026-05-02T14:26:55Z</time></trkpt><trkpt lat="42.21562558415974" lon="13.8342550073945"><ele>389.0</ele><time>2026-05-02T14:27:02Z</time></trkpt><trkpt lat="42.21559828480124" lon="13.834335441704395"><ele>389.0</ele><time>2026-05-02T14:27:07Z</time></trkpt><trkpt lat="42.21557804458186" lon="13.83442137277568"><ele>389.0</ele><time>2026-05-02T14:27:12Z</time></trkpt><trkpt lat="42.21555272067451" lon="13.834502020109932"><ele>389.0</ele><time>2026-05-02T14:27:17Z</time></trkpt><trkpt lat="42.215526096431084" lon="13.834581642925881"><ele>389.0</ele><time>2026-05-02T14:27:23Z</time></trkpt><trkpt lat="42.21551234959941" lon="13.834668192959576"><ele>389.0</ele><time>2026-05-02T14:27:28.999Z</time></trkpt><trkpt lat="42.21554546734775" lon="13.834764665351573"><ele>389.2857142857143</ele><time>2026-05-02T14:27:34.999Z</time></trkpt><trkpt lat="42.215619883642056" lon="13.834766838712401"><ele>389.57142857142856</ele><time>2026-05-02T14:27:40.999Z</time></trkpt><trkpt lat="42.2156829918633" lon="13.834735206934814"><ele>389.85714285714283</ele><time>2026-05-02T14:27:46.999Z</time></trkpt><trkpt lat="42.2157420671744" lon="13.834673765400666"><ele>390.1428571428571</ele><time>2026-05-02T14:27:51.999Z</time></trkpt><trkpt lat="42.21579981854532" lon="13.834611551357934"><ele>390.42857142857144</ele><time>2026-05-02T14:27:56.999Z</time></trkpt><trkpt lat="42.215866957119104" lon="13.83457628497767"><ele>390.71428571428567</ele><time>2026-05-02T14:28:01.999Z</time></trkpt><trkpt lat="42.21592498475077" lon="13.834538998536424"><ele>391.0</ele><time>2026-05-02T14:28:06.999Z</time></trkpt><trkpt lat="42.21599075324613" lon="13.834495395029965"><ele>390.99999999999994</ele><time>2026-05-02T14:28:12.999Z</time></trkpt><trkpt lat="42.21605395282885" lon="13.834486701135692"><ele>391.0</ele><time>2026-05-02T14:28:17.999Z</time></trkpt><trkpt lat="42.216117550798174" lon="13.834497024039749"><ele>391.0</ele><time>2026-05-02T14:28:22.998Z</time></trkpt><trkpt lat="42.21618821691798" lon="13.83451504798603"><ele>391.0</ele><time>2026-05-02T14:28:29.998Z</time></trkpt><trkpt lat="42.216255546011766" lon="13.83454094024005"><ele>391.0</ele><time>2026-05-02T14:28:36Z</time></trkpt><trkpt lat="42.21632282611615" lon="13.834576156964117"><ele>390.99999999999994</ele><time>2026-05-02T14:28:42Z</time></trkpt><trkpt lat="42.216386980102826" lon="13.83460323145633"><ele>391.0</ele><time>2026-05-02T14:28:47Z</time></trkpt><trkpt lat="42.21644166804556" lon="13.83465589740249"><ele>391.0</ele><time>2026-05-02T14:28:52Z</time></trkpt><trkpt lat="42.21646554387822" lon="13.834739712386336"><ele>391.0</ele><time>2026-05-02T14:28:58Z</time></trkpt><trkpt lat="42.21645264613167" lon="13.834835923128896"><ele>391.0</ele><time>2026-05-02T14:29:04Z</time></trkpt><trkpt lat="42.21645065223696" lon="13.834924681274638"><ele>391.0</ele><time>2026-05-02T14:29:10Z</time></trkpt><trkpt lat="42.21647876816248" lon="13.83501422067236"><ele>391.0</ele><time>2026-05-02T14:29:16Z</time></trkpt><trkpt lat="42.21654748354091" lon="13.834985050938004"><ele>392.0</ele><time>2026-05-02T14:29:22Z</time></trkpt><trkpt lat="42.21658710944093" lon="13.834902298553997"><ele>392.0</ele><time>2026-05-02T14:29:28Z</time></trkpt></trkseg></trk></gpx>